Time;durP1;ratioP1;P1;durP2;ratioP2;P2;SDS_P1;SDS_P2;PMS_P1;PMS_P2;Temp;Humidity;BMP_temperature;BMP_pressure;BME280_temperature;BME280_humidity;BME280_pressure;Samples;Min_cycle;Max_cycle;Signal;HPM_P1;HPM_P2
2021/05/15 00:01:00;;;;;;;1.65;0.78;;;;;;;12.44;76.86;97199.73;1731757;83;21056;-71
2021/05/15 00:03:27;;;;;;;2.60;1.12;;;;;;;12.47;76.85;97199.39;1731860;83;21176;-71
2021/05/15 00:05:54;;;;;;;1.07;0.72;;;;;;;12.48;77.07;97206.22;1731888;83;21266;-70
2021/05/15 00:08:20;;;;;;;0.98;0.65;;;;;;;12.48;76.87;97204.92;1731922;83;21123;-69
2021/05/15 00:10:48;;;;;;;4.10;0.90;;;;;;;12.46;77.29;97200.84;1731808;83;21151;-69
2021/05/15 00:13:16;;;;;;;1.12;0.70;;;;;;;12.45;76.71;97197.43;1731822;83;21195;-70
2021/05/15 00:15:43;;;;;;;1.72;0.88;;;;;;;12.47;76.63;97195.48;1731748;83;21056;-69
2021/05/15 00:18:10;;;;;;;1.17;0.68;;;;;;;12.50;76.51;97202.13;1732000;83;21100;-70
2021/05/15 00:20:36;;;;;;;1.70;0.88;;;;;;;12.52;76.25;97199.69;1731925;83;21096;-69
2021/05/15 00:23:04;;;;;;;1.55;0.72;;;;;;;12.52;76.07;97204.08;1732029;83;21108;-69
2021/05/15 00:25:31;;;;;;;2.30;0.72;;;;;;;12.46;76.95;97200.84;1731755;83;21076;-69
2021/05/15 00:27:59;;;;;;;4.25;0.78;;;;;;;12.40;76.86;97201.55;1731813;83;21573;-69
2021/05/15 00:30:27;;;;;;;1.60;1.17;;;;;;;12.29;77.49;97202.77;1731810;83;21053;-70
2021/05/15 00:32:54;;;;;;;0.90;0.72;;;;;;;12.19;78.12;97205.56;1732018;83;21135;-70
2021/05/15 00:35:21;;;;;;;1.00;0.80;;;;;;;12.15;77.41;97204.77;1731967;83;21148;-63
2021/05/15 00:37:48;;;;;;;2.72;0.70;;;;;;;12.15;77.20;97204.77;1731899;83;21124;-65
2021/05/15 00:40:16;;;;;;;1.45;0.78;;;;;;;12.12;76.98;97203.33;1731997;83;21130;-70
2021/05/15 00:42:43;;;;;;;0.65;0.60;;;;;;;12.07;77.40;97202.20;1731934;83;21179;-70
2021/05/15 00:45:13;;;;;;;1.27;0.60;;;;;;;12.00;77.79;97202.58;1731799;83;21100;-71
2021/05/15 00:47:40;;;;;;;1.00;0.70;;;;;;;11.92;78.06;97203.91;1731783;83;21592;-71
2021/05/15 00:50:09;;;;;;;1.47;0.70;;;;;;;11.85;78.07;97208.50;1731999;83;21183;-72
2021/05/15 00:52:37;;;;;;;1.25;0.65;;;;;;;11.79;78.09;97209.16;1732035;83;21124;-71
2021/05/15 00:55:12;;;;;;;0.85;0.53;;;;;;;11.72;77.98;97204.80;1731842;83;21175;-72
2021/05/15 00:57:41;;;;;;;1.37;0.80;;;;;;;11.68;78.27;97213.39;1732204;83;21180;-72
2021/05/15 01:00:14;;;;;;;0.78;0.70;;;;;;;11.65;78.19;97209.02;1732009;83;21115;-72
2021/05/15 01:02:42;;;;;;;0.50;0.50;;;;;;;11.60;78.42;97212.60;1731976;83;21112;-72
2021/05/15 01:05:12;;;;;;;1.17;0.62;;;;;;;11.58;78.54;97210.67;1732043;83;21163;-72
2021/05/15 01:07:44;;;;;;;1.02;0.60;;;;;;;11.55;78.14;97208.41;1731969;83;21075;-71
2021/05/15 01:10:14;;;;;;;1.60;0.70;;;;;;;11.53;78.23;97210.35;1731985;83;21156;-71
2021/05/15 01:12:51;;;;;;;1.15;0.80;;;;;;;11.50;78.76;97212.80;1732152;83;21084;-70
2021/05/15 01:15:21;;;;;;;0.75;0.57;;;;;;;11.44;79.27;97213.45;1731766;83;21587;-71
2021/05/15 01:17:57;;;;;;;1.65;0.90;;;;;;;11.39;79.38;97217.06;1731926;83;21068;-72
2021/05/15 01:20:27;;;;;;;1.95;0.53;;;;;;;11.38;78.95;97216.73;1731966;83;21056;-72
2021/05/15 01:22:58;;;;;;;2.58;0.50;;;;;;;11.35;78.81;97210.57;1731649;83;21758;-72
2021/05/15 01:25:26;;;;;;;0.88;0.62;;;;;;;11.35;78.56;97210.09;1731861;83;21053;-71
2021/05/15 01:27:54;;;;;;;1.12;0.47;;;;;;;11.35;78.72;97215.77;1732041;83;21024;-71
2021/05/15 01:30:22;;;;;;;2.10;0.62;;;;;;;11.33;79.54;97209.42;1731836;83;21117;-71
2021/05/15 01:32:49;;;;;;;0.60;0.40;;;;;;;11.29;79.68;97213.33;1731814;83;21040;-71
2021/05/15 01:35:18;;;;;;;0.72;0.42;;;;;;;11.26;80.02;97205.87;1731938;83;21640;-71
2021/05/15 01:37:45;;;;;;;1.12;0.60;;;;;;;11.26;79.63;97212.84;1731929;83;21571;-71
2021/05/15 01:40:34;;;;;;;0.72;0.50;;;;;;;11.24;79.46;97210.92;1731903;83;21202;-71
2021/05/15 01:43:01;;;;;;;0.62;0.60;;;;;;;11.25;79.08;97208.62;1664657;86;21108;-70
2021/05/15 01:45:28;;;;;;;1.20;0.70;;;;;;;11.25;79.17;97215.93;1703827;83;21536;-70
2021/05/15 01:47:54;;;;;;;0.65;0.40;;;;;;;11.24;79.54;97210.92;1703667;83;21627;-70
2021/05/15 01:50:21;;;;;;;0.62;0.40;;;;;;;11.22;79.05;97208.47;1703871;84;21084;-70
2021/05/15 01:52:48;;;;;;;1.40;0.40;;;;;;;11.21;78.98;97213.34;1703610;84;21131;-71
2021/05/15 01:55:21;;;;;;;1.20;0.60;;;;;;;11.19;79.79;97214.00;1703916;84;21088;-72
2021/05/15 01:57:50;;;;;;;0.53;0.50;;;;;;;11.17;80.06;97209.93;1703837;84;21091;-71
2021/05/15 02:00:19;;;;;;;1.12;0.50;;;;;;;11.15;79.89;97212.71;1703792;84;21048;-71
2021/05/15 02:02:45;;;;;;;1.00;0.80;;;;;;;11.16;80.10;97213.04;1697731;82;21103;-71
2021/05/15 02:05:12;;;;;;;0.50;0.50;;;;;;;11.16;80.98;97216.94;1723962;83;21090;-71
2021/05/15 02:07:39;;;;;;;1.87;0.70;;;;;;;11.15;81.15;97215.80;1724062;83;21106;-71
2021/05/15 02:10:08;;;;;;;3.67;1.00;;;;;;;11.14;81.97;97214.16;1724079;82;21110;-71
2021/05/15 02:12:35;;;;;;;0.98;0.50;;;;;;;11.13;82.44;97211.23;1724129;82;21062;-70
2021/05/15 02:15:04;;;;;;;0.85;0.70;;;;;;;11.14;81.98;97213.67;1697884;82;21118;-70
2021/05/15 02:17:58;;;;;;;6.00;0.90;;;;;;;11.16;81.93;97209.63;1670964;84;21152;-72
2021/05/15 02:20:26;;;;;;;0.78;0.55;;;;;;;11.15;82.27;97207.52;1671208;84;21222;-72
2021/05/15 02:22:53;;;;;;;0.55;0.55;;;;;;;11.17;82.12;97206.03;1668813;85;21065;-72
2021/05/15 02:25:20;;;;;;;1.02;0.60;;;;;;;11.22;81.79;97207.17;1668543;85;21102;-71
2021/05/15 02:27:47;;;;;;;3.30;0.80;;;;;;;11.27;81.67;97210.09;1668624;85;21087;-71
2021/05/15 02:30:35;;;;;;;1.00;0.82;;;;;;;11.33;81.38;97212.51;1671100;85;21536;-71
2021/05/15 02:33:03;;;;;;;0.98;0.60;;;;;;;11.37;81.28;97206.81;1727006;81;21063;-71
2021/05/15 02:35:30;;;;;;;1.57;0.70;;;;;;;11.37;81.47;97212.50;1729619;83;21083;-71
2021/05/15 02:37:58;;;;;;;1.72;1.15;;;;;;;11.31;82.15;97208.80;1729559;82;21082;-70
2021/05/15 02:40:25;;;;;;;1.72;0.60;;;;;;;11.35;81.52;97213.17;1729462;83;21027;-71
2021/05/15 02:42:54;;;;;;;2.65;0.85;;;;;;;11.38;81.10;97211.05;1729637;83;21067;-71
2021/05/15 02:45:23;;;;;;;1.10;0.65;;;;;;;11.43;80.91;97215.27;1696886;83;22367;-71
2021/05/15 02:50:51;;;;;;;1.52;0.70;;;;;;;11.42;80.95;97231.02;1730876;82;21694;-71
2021/05/15 02:53:19;;;;;;;1.32;0.82;;;;;;;11.40;80.87;97225.97;1730705;82;21140;-72
2021/05/15 02:55:46;;;;;;;3.17;0.70;;;;;;;11.35;80.84;97233.48;1730819;82;21012;-72
2021/05/15 02:58:16;;;;;;;0.50;0.40;;;;;;;11.33;81.10;97233.30;1730899;82;21229;-66
2021/05/15 03:00:43;;;;;;;0.82;0.55;;;;;;;11.29;81.55;97228.92;1730911;82;21078;-71
2021/05/15 03:03:10;;;;;;;1.42;0.70;;;;;;;11.26;81.02;97223.25;1730642;82;21126;-71
2021/05/15 03:05:37;;;;;;;0.60;0.40;;;;;;;11.27;81.04;97228.30;1730694;82;21092;-71
2021/05/15 03:08:04;;;;;;;0.93;0.62;;;;;;;11.28;80.90;97231.19;1730883;82;21662;-66
2021/05/15 03:10:32;;;;;;;7.42;0.90;;;;;;;11.26;80.94;97234.94;1730751;82;21618;-66
2021/05/15 03:12:59;;;;;;;0.72;0.60;;;;;;;11.26;80.94;97240.14;1730560;82;21118;-66
2021/05/15 03:15:26;;;;;;;1.62;0.60;;;;;;;11.22;80.86;97229.75;1730914;81;21158;-66
2021/05/15 03:17:54;;;;;;;1.62;0.72;;;;;;;11.21;80.86;97235.91;1730860;81;21075;-65
2021/05/15 03:20:25;;;;;;;0.68;0.60;;;;;;;11.25;80.75;97241.11;1730792;82;21697;-69
2021/05/15 03:22:53;;;;;;;0.90;0.60;;;;;;;11.29;80.50;97243.70;1730769;82;21472;-66
2021/05/15 03:25:21;;;;;;;0.98;0.62;;;;;;;11.34;80.34;97242.73;1730807;82;21059;-66
2021/05/15 03:27:48;;;;;;;1.60;0.68;;;;;;;11.38;80.17;97237.53;1730873;82;21048;-66
2021/05/15 03:30:18;;;;;;;1.07;0.90;;;;;;;11.41;80.01;97239.30;1730645;82;21582;-66
2021/05/15 03:32:45;;;;;;;0.70;0.60;;;;;;;11.43;79.80;97239.16;1730700;81;21087;-71
2021/05/15 03:35:15;;;;;;;1.02;0.75;;;;;;;11.42;79.53;97241.42;1730797;82;21079;-66
2021/05/15 03:37:42;;;;;;;1.72;1.10;;;;;;;11.31;80.61;97240.47;1730580;82;21037;-66
2021/05/15 03:40:10;;;;;;;1.75;0.82;;;;;;;11.29;79.87;97247.12;1730651;82;21640;-66
2021/05/15 03:42:38;;;;;;;1.35;0.50;;;;;;;11.28;80.01;97244.70;1730847;81;21043;-66
2021/05/15 03:45:08;;;;;;;1.20;0.80;;;;;;;11.28;79.93;97246.00;1730635;82;21177;-66
2021/05/15 03:47:36;;;;;;;1.00;0.57;;;;;;;11.26;80.18;97249.23;1730771;82;21063;-66
2021/05/15 03:50:26;;;;;;;1.67;0.88;;;;;;;11.24;79.85;97258.52;1748320;80;21684;-71
2021/05/15 03:52:54;;;;;;;1.00;0.88;;;;;;;11.22;80.29;97257.85;1723237;83;21064;-71
2021/05/15 03:55:21;;;;;;;3.42;0.90;;;;;;;11.14;81.18;97263.05;1723303;83;21660;-71
2021/05/15 03:57:48;;;;;;;0.80;0.68;;;;;;;11.13;80.39;97265.31;1723642;83;21160;-71
2021/05/15 04:00:17;;;;;;;0.70;0.62;;;;;;;11.16;80.31;97274.59;1723765;83;21184;-71
2021/05/15 04:02:48;;;;;;;0.95;0.70;;;;;;;11.17;80.07;97269.22;1723539;83;21148;-71
2021/05/15 04:05:14;;;;;;;2.25;0.88;;;;;;;11.19;80.23;97276.86;1723305;82;21141;-70
2021/05/15 04:07:41;;;;;;;0.88;0.62;;;;;;;11.22;80.05;97279.94;1723355;83;21096;-71
2021/05/15 04:10:09;;;;;;;2.83;0.68;;;;;;;11.24;80.82;97280.61;1693707;83;21584;-66
2021/05/15 04:12:36;;;;;;;1.40;1.10;;;;;;;11.23;80.54;97276.38;1723472;83;21134;-66
2021/05/15 04:15:10;;;;;;;1.57;1.20;;;;;;;11.27;81.62;97275.56;1723520;83;21180;-71
2021/05/15 04:17:36;;;;;;;1.35;0.82;;;;;;;11.28;80.80;97271.48;1723517;83;21076;-71
2021/05/15 04:20:10;;;;;;;1.20;0.68;;;;;;;11.34;80.12;97272.14;1723378;83;21616;-71
2021/05/15 04:22:37;;;;;;;1.02;0.78;;;;;;;11.44;79.76;97275.84;1723358;83;21663;-71
2021/05/15 04:25:26;;;;;;;1.25;0.95;;;;;;;11.48;80.45;97277.14;1723624;83;21088;-71
2021/05/15 04:27:55;;;;;;;1.90;1.37;;;;;;;11.52;80.32;97282.34;1727983;83;21066;-71
2021/05/15 04:30:25;;;;;;;1.05;0.60;;;;;;;11.57;79.89;97283.97;1728174;83;21145;-71
2021/05/15 04:32:53;;;;;;;1.57;1.00;;;;;;;11.57;80.06;97287.87;1728144;83;21062;-71
2021/05/15 04:35:24;;;;;;;1.47;0.80;;;;;;;11.55;80.31;97282.03;1728025;83;21063;-66
2021/05/15 04:37:50;;;;;;;1.07;0.70;;;;;;;11.56;80.20;97285.42;1727770;83;21106;-65
2021/05/15 04:40:17;;;;;;;1.15;0.90;;;;;;;11.59;80.20;97279.43;1728071;83;21051;-71
2021/05/15 04:42:44;;;;;;;0.70;0.70;;;;;;;11.68;79.85;97282.31;1728023;83;21582;-71
2021/05/15 04:45:15;;;;;;;3.47;0.60;;;;;;;11.76;79.40;97292.73;1728114;83;21856;-72
2021/05/15 04:47:42;;;;;;;0.95;0.65;;;;;;;11.84;78.70;97289.30;1727921;83;21054;-71
2021/05/15 04:50:11;;;;;;;0.68;0.68;;;;;;;11.90;78.38;97293.86;1727932;83;21067;-71
2021/05/15 04:52:38;;;;;;;0.80;0.70;;;;;;;11.93;78.14;97303.11;1727967;83;21090;-71
2021/05/15 04:55:07;;;;;;;0.80;0.78;;;;;;;11.97;77.98;97296.59;1728128;83;21055;-70
2021/05/15 04:57:34;;;;;;;1.52;0.70;;;;;;;12.02;77.61;97299.52;1728092;83;21692;-71
2021/05/15 05:00:01;;;;;;;1.27;0.70;;;;;;;12.08;77.72;97300.95;1727984;83;21086;-72
2021/05/15 05:02:28;;;;;;;0.78;0.78;;;;;;;12.19;77.69;97295.86;1728036;83;21574;-70
2021/05/15 05:04:55;;;;;;;2.02;0.72;;;;;;;12.29;77.29;97300.39;1728065;83;21082;-71
2021/05/15 05:07:22;;;;;;;1.50;0.75;;;;;;;12.37;77.24;97296.45;1728272;83;21110;-72
2021/05/15 05:09:49;;;;;;;2.87;0.95;;;;;;;12.34;76.40;97293.67;1728146;83;21083;-71
2021/05/15 05:12:15;;;;;;;1.17;1.00;;;;;;;12.38;76.55;97301.47;1727875;83;21196;-71
2021/05/15 05:14:43;;;;;;;1.30;0.98;;;;;;;12.41;77.28;97309.45;1728142;83;21078;-72
2021/05/15 05:17:10;;;;;;;1.15;0.70;;;;;;;12.43;77.04;97310.08;1728052;83;21154;-71
2021/05/15 05:19:37;;;;;;;1.02;0.75;;;;;;;12.47;76.63;97304.85;1727848;83;21067;-72
2021/05/15 05:22:04;;;;;;;1.30;0.80;;;;;;;12.46;75.72;97303.22;1728012;83;21082;-72
2021/05/15 05:24:31;;;;;;;1.87;0.95;;;;;;;12.51;76.03;97305.32;1728162;83;21063;-72
2021/05/15 05:27:02;;;;;;;2.00;0.98;;;;;;;12.55;76.21;97311.33;1722141;83;21123;-72
2021/05/15 05:29:29;;;;;;;3.02;1.00;;;;;;;12.67;75.96;97309.15;1717959;83;21122;-72
2021/05/15 05:31:56;;;;;;;0.62;0.62;;;;;;;12.77;75.65;97310.55;1717882;83;21543;-72
2021/05/15 05:34:23;;;;;;;0.75;0.70;;;;;;;12.89;75.55;97310.14;1717910;83;21075;-72
2021/05/15 05:36:49;;;;;;;3.92;1.12;;;;;;;12.82;74.37;97310.03;1717930;83;21082;-72
2021/05/15 05:39:19;;;;;;;1.90;1.10;;;;;;;12.98;74.32;97313.84;1718034;83;21122;-73
2021/05/15 05:41:48;;;;;;;2.67;1.10;;;;;;;13.16;73.97;97305.27;1717810;83;21089;-71
2021/05/15 05:44:15;;;;;;;1.62;1.02;;;;;;;13.22;73.36;97311.09;1717580;83;21161;-70
2021/05/15 05:46:42;;;;;;;2.83;1.75;;;;;;;13.10;73.61;97312.98;1712175;82;21088;-70
2021/05/15 05:49:09;;;;;;;2.72;1.95;;;;;;;13.19;75.90;97317.16;1703711;83;21128;-69
2021/05/15 05:51:36;;;;;;;5.67;2.40;;;;;;;13.13;76.49;97311.31;1703705;84;21055;-69
2021/05/15 05:54:03;;;;;;;2.70;2.35;;;;;;;13.14;77.48;97305.13;1703804;84;21662;-64
2021/05/15 05:56:30;;;;;;;1.65;1.50;;;;;;;13.20;77.25;97310.94;1703757;84;21091;-64
2021/05/15 05:58:57;;;;;;;2.00;1.65;;;;;;;13.28;76.93;97305.17;1703715;84;21323;-64
2021/05/15 06:01:24;;;;;;;1.50;1.35;;;;;;;13.30;76.42;97299.79;1703629;84;21604;-64
2021/05/15 06:03:51;;;;;;;5.75;1.87;;;;;;;13.34;75.55;97302.37;1703864;84;21580;-64
2021/05/15 06:06:17;;;;;;;6.05;3.10;;;;;;;13.47;75.66;97304.35;1703829;84;21524;-68
2021/05/15 06:08:44;;;;;;;10.78;5.45;;;;;;;13.47;75.00;97301.25;1703682;83;21139;-67
2021/05/15 06:11:11;;;;;;;5.05;1.92;;;;;;;13.47;74.71;97302.56;1703951;84;21115;-70
2021/05/15 06:13:38;;;;;;;2.75;1.32;;;;;;;13.38;76.37;97299.73;1703973;84;21133;-71
2021/05/15 06:16:06;;;;;;;5.55;3.55;;;;;;;13.51;75.09;97299.10;1703988;84;21678;-71
2021/05/15 06:18:33;;;;;;;2.85;2.02;;;;;;;13.58;75.44;97297.43;1703847;84;21146;-69
2021/05/15 06:21:00;;;;;;;2.15;1.65;;;;;;;13.76;73.49;97299.20;1703738;84;21159;-63
2021/05/15 06:23:27;;;;;;;3.60;2.35;;;;;;;13.85;71.86;97281.14;1703667;83;21096;-74
2021/05/15 06:25:54;;;;;;;3.98;2.02;;;;;;;13.99;72.71;97296.51;1703714;83;21568;-72
2021/05/15 06:28:21;;;;;;;3.35;2.20;;;;;;;14.14;72.01;97296.01;1703806;84;21115;-65
2021/05/15 06:30:48;;;;;;;4.47;2.35;;;;;;;14.05;72.12;97301.81;1703784;84;21163;-64
2021/05/15 06:36:35;;;;;;;1.80;1.52;;;;;;;14.18;72.24;97293.35;1748284;79;21313;-69
2021/05/15 06:39:04;;;;;;;3.40;1.57;;;;;;;14.38;72.27;97297.06;1691773;85;21724;-67
2021/05/15 06:41:31;;;;;;;2.33;1.57;;;;;;;14.47;72.13;97297.28;1684939;84;21110;-68
2021/05/15 06:43:58;;;;;;;3.60;1.55;;;;;;;14.47;72.42;97301.20;1683658;84;21110;-70
2021/05/15 06:46:25;;;;;;;3.42;1.72;;;;;;;14.58;72.77;97305.95;1677018;84;21115;-71
2021/05/15 06:48:52;;;;;;;1.47;1.37;;;;;;;14.67;72.70;97303.52;1676898;85;21186;-69
2021/05/15 06:51:19;;;;;;;2.55;1.80;;;;;;;14.70;72.13;97304.97;1655595;85;21428;-70
2021/05/15 06:53:46;;;;;;;1.72;1.47;;;;;;;14.69;72.12;97311.19;1677097;85;21111;-70
2021/05/15 06:56:13;;;;;;;2.90;1.40;;;;;;;14.67;72.27;97319.20;1677179;85;21111;-69
2021/05/15 06:58:43;;;;;;;1.77;1.30;;;;;;;14.79;71.48;97319.53;1677079;85;21201;-69
2021/05/15 07:01:09;;;;;;;2.02;1.22;;;;;;;14.85;71.14;97315.38;1676808;84;21186;-71
2021/05/15 07:03:36;;;;;;;11.68;1.60;;;;;;;14.98;70.83;97312.92;1676684;84;21211;-72
2021/05/15 07:06:04;;;;;;;2.87;2.00;;;;;;;15.00;70.42;97318.26;1676867;85;21098;-70
2021/05/15 07:08:31;;;;;;;13.48;7.30;;;;;;;15.00;69.82;97319.57;1676952;84;21052;-73
2021/05/15 07:10:58;;;;;;;13.62;7.78;;;;;;;15.34;69.50;97317.56;1676888;85;21165;-79
2021/05/15 07:13:25;;;;;;;5.58;2.75;;;;;;;15.49;68.43;97317.02;1676935;85;21142;-74
2021/05/15 07:15:52;;;;;;;4.20;2.42;;;;;;;15.54;68.25;97313.34;1677040;84;21106;-71
2021/05/15 07:18:21;;;;;;;3.00;1.95;;;;;;;15.70;65.80;97315.38;1676274;85;21095;-73
2021/05/15 07:20:48;;;;;;;2.00;1.37;;;;;;;15.73;65.96;97315.80;1676930;84;21079;-67
2021/05/15 07:23:15;;;;;;;1.90;1.60;;;;;;;15.94;65.68;97309.70;1676929;85;21587;-68
2021/05/15 07:25:42;;;;;;;2.12;1.35;;;;;;;16.04;64.63;97324.56;1676975;84;21170;-68
2021/05/15 07:28:09;;;;;;;1.90;1.37;;;;;;;16.15;64.51;97317.47;1676891;84;21206;-68
2021/05/15 07:30:36;;;;;;;2.10;1.65;;;;;;;16.30;63.61;97315.53;1676971;85;21654;-68
2021/05/15 07:33:04;;;;;;;3.30;1.70;;;;;;;16.45;62.38;97317.55;1677069;85;21174;-68
2021/05/15 07:35:31;;;;;;;1.60;1.27;;;;;;;16.64;61.29;97312.10;1677032;85;21079;-68
2021/05/15 07:37:58;;;;;;;3.00;1.57;;;;;;;16.73;60.43;97320.61;1693557;82;21185;-68
2021/05/15 07:40:25;;;;;;;2.12;1.45;;;;;;;16.72;60.77;97311.12;1706322;82;21082;-68
2021/05/15 07:42:52;;;;;;;1.85;1.20;;;;;;;16.91;60.55;97311.17;1706192;82;21561;-66
2021/05/15 07:45:19;;;;;;;2.85;1.65;;;;;;;16.99;60.23;97308.38;1706123;82;21101;-67
2021/05/15 07:47:45;;;;;;;5.42;2.02;;;;;;;17.08;60.37;97317.66;1706275;82;21184;-67
2021/05/15 07:50:12;;;;;;;2.22;1.60;;;;;;;17.21;59.98;97308.19;1706326;82;21122;-67
2021/05/15 07:52:39;;;;;;;1.47;1.20;;;;;;;17.18;60.08;97312.53;1706428;82;21071;-67
2021/05/15 07:55:28;;;;;;;2.35;0.90;;;;;;;17.32;61.19;97316.28;1706483;82;21062;-67
2021/05/15 07:57:55;;;;;;;2.37;1.30;;;;;;;17.43;58.91;97313.05;1713902;82;21062;-66
2021/05/15 08:00:22;;;;;;;1.55;1.10;;;;;;;17.10;56.97;97318.78;1713960;83;21069;-63
2021/05/15 08:02:49;;;;;;;1.85;1.27;;;;;;;17.33;58.04;97316.59;1713966;83;21041;-65
2021/05/15 08:05:16;;;;;;;2.22;1.37;;;;;;;17.66;59.45;97313.20;1714084;82;21038;-69
2021/05/15 08:07:43;;;;;;;4.53;1.50;;;;;;;17.77;57.26;97313.90;1714021;82;21025;-68
2021/05/15 08:10:12;;;;;;;2.77;1.47;;;;;;;18.11;57.53;97308.89;1713855;83;21093;-70
2021/05/15 08:12:39;;;;;;;1.27;1.02;;;;;;;17.98;56.51;97305.77;1713971;83;21073;-65
2021/05/15 08:15:07;;;;;;;2.98;1.67;;;;;;;18.21;57.38;97304.03;1713954;82;21061;-64
2021/05/15 08:17:36;;;;;;;2.45;1.22;;;;;;;18.37;57.05;97307.49;1714112;82;21002;-65
2021/05/15 08:20:05;;;;;;;1.50;1.00;;;;;;;18.33;56.18;97299.22;1713848;82;21049;-64
2021/05/15 08:22:32;;;;;;;0.95;0.88;;;;;;;18.44;54.87;97301.20;1713838;83;21038;-66
2021/05/15 08:24:59;;;;;;;1.98;1.15;;;;;;;18.86;54.02;97297.72;1712473;82;21085;-65
2021/05/15 08:27:27;;;;;;;1.30;0.85;;;;;;;19.03;53.40;97297.50;1713004;83;21128;-64
2021/05/15 08:29:54;;;;;;;1.07;0.80;;;;;;;19.16;50.78;97296.62;1713341;83;21521;-66
2021/05/15 08:32:21;;;;;;;1.02;0.70;;;;;;;19.38;50.63;97297.36;1713062;82;21735;-64
2021/05/15 08:34:48;;;;;;;2.33;0.50;;;;;;;19.53;47.69;97288.39;1713239;83;21038;-64
2021/05/15 08:37:14;;;;;;;3.77;0.70;;;;;;;19.65;47.13;97287.98;1713175;83;21193;-64
2021/05/15 08:39:41;;;;;;;0.72;0.57;;;;;;;19.72;45.48;97275.55;1713831;83;21126;-64
2021/05/15 08:42:09;;;;;;;0.40;0.40;;;;;;;19.86;44.50;97278.34;1714192;82;21054;-68
2021/05/15 08:44:38;;;;;;;0.80;0.80;;;;;;;19.94;46.09;97281.21;1714278;83;21038;-68
2021/05/15 08:47:08;;;;;;;0.65;0.50;;;;;;;20.02;45.35;97283.05;1714414;83;21073;-70
2021/05/15 08:49:37;;;;;;;0.55;0.47;;;;;;;20.19;44.96;97278.02;1692268;83;21021;-69
2021/05/15 08:52:28;;;;;;;0.53;0.53;;;;;;;20.29;42.86;97271.23;1714129;82;21131;-68
2021/05/15 08:54:56;;;;;;;0.82;0.72;;;;;;;20.32;44.50;97263.38;1628357;88;21083;-68
2021/05/15 08:57:23;;;;;;;2.75;0.60;;;;;;;20.32;43.44;97264.19;1628566;87;21173;-69
2021/05/15 08:59:51;;;;;;;0.50;0.50;;;;;;;20.12;42.77;97262.77;1628357;88;21213;-68
2021/05/15 09:02:18;;;;;;;1.30;0.95;;;;;;;19.76;42.84;97259.61;1628368;87;21059;-68
2021/05/15 09:04:47;;;;;;;0.80;0.60;;;;;;;20.05;43.69;97259.39;1628364;88;21681;-68
2021/05/15 09:07:13;;;;;;;0.85;0.62;;;;;;;20.09;43.16;97260.06;1627829;88;21071;-68
2021/05/15 09:09:40;;;;;;;1.87;0.95;;;;;;;20.05;42.52;97264.16;1628374;87;21024;-68
2021/05/15 09:12:08;;;;;;;2.25;1.00;;;;;;;20.22;43.18;97267.84;1628407;88;21040;-67
2021/05/15 09:14:35;;;;;;;0.75;0.60;;;;;;;20.34;43.54;97258.20;1628374;88;21273;-68
2021/05/15 09:17:02;;;;;;;2.08;1.17;;;;;;;20.51;44.58;97265.48;1628482;88;21150;-68
2021/05/15 09:19:30;;;;;;;0.60;0.60;;;;;;;20.48;43.75;97262.78;1628382;88;21040;-68
2021/05/15 09:22:06;;;;;;;0.85;0.50;;;;;;;20.80;44.09;97262.06;1628317;88;21176;-68
2021/05/15 09:24:37;;;;;;;0.50;0.50;;;;;;;21.05;43.69;97260.06;1628324;88;21047;-67
2021/05/15 09:27:07;;;;;;;0.80;0.80;;;;;;;21.28;43.00;97257.50;1628160;87;21084;-68
2021/05/15 09:29:43;;;;;;;0.90;0.70;;;;;;;21.14;43.79;97268.50;1628395;87;21295;-68
2021/05/15 09:32:11;;;;;;;;;;;;;;;21.38;44.19;97262.23;1630705;87;21051;-68
2021/05/15 09:34:48;;;;;;;0.78;0.70;;;;;;;21.40;42.52;97258.84;1628555;88;20172;-68
2021/05/15 09:37:38;;;;;;;0.42;0.42;;;;;;;21.59;41.80;97256.92;1628109;87;21112;-68
2021/05/15 09:40:15;;;;;;;0.93;0.62;;;;;;;21.49;42.97;97249.55;1628385;88;21634;-68
2021/05/15 09:42:53;;;;;;;0.82;0.68;;;;;;;22.09;44.01;97262.05;1628390;87;21524;-68
2021/05/15 09:45:27;;;;;;;0.90;0.70;;;;;;;22.02;41.65;97250.77;1628154;86;21133;-66
2021/05/15 09:47:59;;;;;;;0.90;0.80;;;;;;;21.77;42.11;97265.54;1628313;87;21063;-66
2021/05/15 09:50:30;;;;;;;1.92;0.82;;;;;;;21.49;41.21;97261.95;1628422;88;21116;-66
2021/05/15 09:53:11;;;;;;;0.72;0.60;;;;;;;21.65;41.20;97258.64;1630455;86;21194;-66
2021/05/15 09:55:41;;;;;;;1.17;0.90;;;;;;;21.71;42.25;97259.84;1658781;86;21095;-67
2021/05/15 09:58:09;;;;;;;0.70;0.70;;;;;;;21.26;43.07;97258.26;1658788;86;21103;-70
2021/05/15 10:00:47;;;;;;;2.62;1.10;;;;;;;21.42;41.96;97259.95;1658816;85;21104;-66
2021/05/15 10:03:23;;;;;;;0.98;0.57;;;;;;;21.45;41.91;97252.88;1658924;86;21090;-66
2021/05/15 10:06:13;;;;;;;1.10;1.00;;;;;;;21.88;40.88;97258.63;1658850;86;21063;-66
2021/05/15 10:08:42;;;;;;;1.02;0.82;;;;;;;22.01;41.25;97247.86;1658761;86;21164;-66
2021/05/15 10:11:11;;;;;;;1.15;0.88;;;;;;;22.66;40.19;97256.30;1658738;86;21082;-68
2021/05/15 10:13:44;;;;;;;2.55;0.70;;;;;;;22.32;39.65;97249.80;1658855;85;21106;-68
2021/05/15 10:16:09;;;;;;;1.00;0.70;;;;;;;22.20;40.47;97242.70;1658232;86;21122;-68
2021/05/15 10:18:36;;;;;;;1.92;0.75;;;;;;;22.89;40.02;97249.32;1658891;86;21217;-67
2021/05/15 10:21:03;;;;;;;1.47;0.85;;;;;;;22.90;38.63;97245.12;1658992;85;21139;-66
2021/05/15 10:23:40;;;;;;;0.57;0.50;;;;;;;23.56;37.92;97250.21;1658956;86;21102;-68
2021/05/15 10:26:20;;;;;;;1.35;0.90;;;;;;;23.59;37.92;97245.75;1658707;86;21586;-67
2021/05/15 10:29:05;;;;;;;0.65;0.65;;;;;;;23.30;38.11;97245.02;1658743;86;21106;-68
2021/05/15 10:32:02;;;;;;;0.82;0.62;;;;;;;23.48;37.49;97247.96;1685406;85;21147;-67
2021/05/15 10:34:34;;;;;;;0.55;0.55;;;;;;;24.08;35.39;97241.41;1686228;85;21150;-66
2021/05/15 10:37:02;;;;;;;2.62;0.75;;;;;;;23.68;36.56;97232.89;1657319;86;21630;-68
2021/05/15 10:39:33;;;;;;;0.88;0.68;;;;;;;24.46;36.81;97225.45;1685934;84;21093;-67
2021/05/15 10:42:03;;;;;;;0.50;0.50;;;;;;;24.28;34.38;97236.37;1657179;86;21115;-68
2021/05/15 10:44:46;;;;;;;1.50;0.68;;;;;;;25.19;33.63;97229.38;1686120;85;21638;-67
2021/05/15 10:47:13;;;;;;;2.35;0.60;;;;;;;25.21;34.15;97221.97;1657340;86;21072;-67
2021/05/15 10:49:44;;;;;;;0.95;0.62;;;;;;;25.01;34.14;97225.25;1657305;86;21091;-67
2021/05/15 10:52:13;;;;;;;1.47;0.70;;;;;;;24.41;34.42;97231.22;1657363;86;21160;-67
2021/05/15 10:54:53;;;;;;;0.50;0.50;;;;;;;25.11;32.99;97229.03;1686172;84;21575;-68
2021/05/15 10:57:26;;;;;;;0.78;0.47;;;;;;;24.88;34.83;97221.67;1657374;86;21235;-67
2021/05/15 11:00:04;;;;;;;0.50;0.40;;;;;;;24.58;34.77;97223.99;1686086;84;21238;-67
2021/05/15 11:02:40;;;;;;;0.55;0.55;;;;;;;23.87;35.58;97221.77;1657336;86;21576;-67
2021/05/15 11:05:17;;;;;;;1.75;0.50;;;;;;;23.62;36.32;97228.83;1685982;84;21048;-66
2021/05/15 11:07:44;;;;;;;0.88;0.88;;;;;;;22.75;37.39;97228.97;1657307;86;21558;-68
2021/05/15 11:10:18;;;;;;;0.65;0.60;;;;;;;22.48;38.38;97230.03;1686183;84;21151;-69
2021/05/15 11:12:51;;;;;;;0.50;0.40;;;;;;;22.41;39.13;97224.59;1657388;86;21607;-69
2021/05/15 11:15:21;;;;;;;1.82;0.50;;;;;;;22.49;38.88;97222.91;1657457;86;21513;-69
2021/05/15 11:18:04;;;;;;;0.57;0.57;;;;;;;22.82;38.30;97223.01;1686164;84;21099;-69
2021/05/15 11:20:46;;;;;;;0.82;0.47;;;;;;;23.09;37.79;97221.36;1657485;86;21111;-69
2021/05/15 11:23:20;;;;;;;1.62;0.70;;;;;;;23.35;37.37;97220.42;1686088;85;21143;-70
2021/05/15 11:28:49;;;;;;;1.02;0.85;;;;;;;23.10;37.57;97211.58;1715043;82;21221;-71
2021/05/15 11:31:18;;;;;;;0.57;0.50;;;;;;;23.18;37.46;97215.95;1684568;83;21141;-69
2021/05/15 11:33:45;;;;;;;0.57;0.50;;;;;;;23.50;36.65;97210.12;1721472;83;21042;-69
2021/05/15 11:36:14;;;;;;;3.85;0.70;;;;;;;23.34;37.18;97207.73;1736500;82;21119;-70
2021/05/15 11:38:41;;;;;;;1.85;0.80;;;;;;;23.59;36.94;97207.31;1736453;82;21646;-69
2021/05/15 11:41:07;;;;;;;0.57;0.57;;;;;;;23.48;36.71;97205.56;1736465;82;21551;-69
2021/05/15 11:43:38;;;;;;;0.93;0.68;;;;;;;23.03;38.26;97209.06;1742825;80;21619;-70
2021/05/15 11:46:08;;;;;;;0.98;0.60;;;;;;;22.68;39.13;97199.20;1746424;80;21096;-70
2021/05/15 11:48:38;;;;;;;2.75;1.02;;;;;;;22.80;38.74;97209.19;1746610;81;21150;-70
2021/05/15 11:51:14;;;;;;;0.68;0.62;;;;;;;22.53;39.21;97203.66;1746497;81;21000;-69
2021/05/15 11:53:48;;;;;;;4.12;0.50;;;;;;;22.81;38.57;97197.56;1741455;81;21103;-69